createdAt,value
2023-04-08T00:01:07.277Z,96895.78
2023-04-08T00:03:34.761Z,96879.16
2023-04-08T00:06:03.289Z,96885.13
2023-04-08T00:08:30.017Z,96900.09
2023-04-08T00:10:56.940Z,96897.75
2023-04-08T00:13:23.479Z,96896.88
2023-04-08T00:15:49.990Z,96894.34
2023-04-08T00:18:17.402Z,96894.19
2023-04-08T00:20:44.316Z,96900.66
2023-04-08T00:23:11.049Z,96900.66
2023-04-08T00:25:37.766Z,96899.38
2023-04-08T00:28:04.560Z,96886.81
2023-04-08T00:30:31.391Z,96893.59
2023-04-08T00:32:58.578Z,96874.91
2023-04-08T00:35:25.836Z,96900.88
2023-04-08T00:37:52.481Z,96903.03
2023-04-08T00:40:19.090Z,96899.88
2023-04-08T00:42:45.639Z,96898.09
2023-04-08T00:45:13.339Z,96901.84
2023-04-08T00:47:40.140Z,96902.09
2023-04-08T00:50:10.885Z,96893.97
2023-04-08T00:52:37.492Z,96889.88
2023-04-08T00:55:04.503Z,96899.25
2023-04-08T00:57:31.060Z,96888.00
2023-04-08T00:59:58.787Z,96906.13
2023-04-08T01:02:39.774Z,96901.63
2023-04-08T01:05:26.688Z,96905.84
2023-04-08T01:07:53.206Z,96903.03
2023-04-08T01:10:26.636Z,96900.41
2023-04-08T01:12:58.238Z,96903.53
2023-04-08T01:15:26.890Z,96912.66
2023-04-08T01:17:56.343Z,96900.56
2023-04-08T01:20:25.290Z,96892.00
2023-04-08T01:23:01.291Z,96903.81
2023-04-08T01:25:32.445Z,96871.41
2023-04-08T01:28:06.034Z,96870.66
2023-04-08T01:30:34.096Z,96908.28
2023-04-08T01:33:02.414Z,96891.38
2023-04-08T01:35:31.170Z,96865.06
2023-04-08T01:37:59.226Z,96864.56
2023-04-08T01:40:26.225Z,96900.16
2023-04-08T01:42:56.053Z,96901.22
2023-04-08T01:45:24.207Z,96879.47
2023-04-08T01:47:52.441Z,96827.19
2023-04-08T01:50:20.586Z,96879.06
2023-04-08T01:52:50.432Z,96872.47
2023-04-08T01:55:17.513Z,96887.44
2023-04-08T01:57:52.847Z,96882.25
2023-04-08T02:00:26.395Z,96865.25
2023-04-08T02:02:54.563Z,96863.06
2023-04-08T02:05:21.458Z,96883.84
2023-04-08T02:07:48.893Z,96881.56
2023-04-08T02:10:16.210Z,96872.66
2023-04-08T02:12:44.278Z,96869.34
2023-04-08T02:15:12.276Z,96860.84
2023-04-08T02:17:47.217Z,96898.25
2023-04-08T02:20:24.660Z,96879.47
2023-04-08T02:23:19.617Z,96874.78
2023-04-08T02:25:48.160Z,96881.53
2023-04-08T02:28:17.753Z,96877.88
2023-04-08T02:30:51.162Z,96852.25
2023-04-08T02:33:20.938Z,96864.44
2023-04-08T02:35:49.554Z,96893.16
2023-04-08T02:38:16.196Z,96894.28
2023-04-08T02:40:43.361Z,96878.16
2023-04-08T02:43:09.922Z,96852.91
2023-04-08T02:45:42.565Z,96878.41
2023-04-08T02:48:10.248Z,96870.25
2023-04-08T02:50:37.171Z,96902.44
2023-04-08T02:53:04.084Z,96909.53
2023-04-08T02:55:32.664Z,96886.94
2023-04-08T02:57:59.083Z,96913.81
2023-04-08T03:00:25.536Z,96910.22
2023-04-08T03:02:51.998Z,96914.34
2023-04-08T03:05:18.624Z,96860.59
2023-04-08T03:07:45.329Z,96906.81
2023-04-08T03:10:11.799Z,96890.38
2023-04-08T03:12:38.193Z,96918.41
2023-04-08T03:15:05.043Z,96909.59
2023-04-08T03:17:33.879Z,96858.28
2023-04-08T03:20:05.114Z,96903.06
2023-04-08T03:22:31.893Z,96921.03
2023-04-08T03:24:58.377Z,96896.56
2023-04-08T03:27:24.787Z,96929.28
2023-04-08T03:29:51.390Z,96924.91
2023-04-08T03:32:18.011Z,96918.91
2023-04-08T03:34:44.484Z,96926.91
2023-04-08T03:37:10.928Z,96886.25
2023-04-08T03:39:37.926Z,96918.41
2023-04-08T03:42:04.451Z,96909.97
2023-04-08T03:44:31.039Z,96923.44
2023-04-08T03:46:57.490Z,96910.00
2023-04-08T03:49:23.917Z,96926.69
2023-04-08T03:51:50.852Z,96905.25
2023-04-08T03:54:17.334Z,96907.41
2023-04-08T03:56:43.757Z,96917.44
2023-04-08T03:59:10.300Z,96905.19
2023-04-08T04:01:36.688Z,96923.66
2023-04-08T04:04:03.403Z,96910.81
2023-04-08T04:06:30.076Z,96925.28
2023-04-08T04:08:56.440Z,96936.84
2023-04-08T04:11:23.107Z,96921.16
2023-04-08T04:13:49.697Z,96908.13
2023-04-08T04:16:16.449Z,96898.69
2023-04-08T04:18:43.050Z,96925.78
2023-04-08T04:21:09.763Z,96915.13
2023-04-08T04:23:36.280Z,96911.75
2023-04-08T04:26:02.675Z,96941.38
2023-04-08T04:28:29.139Z,96916.56
2023-04-08T04:30:56.791Z,96945.47
2023-04-08T04:33:23.432Z,96945.88
2023-04-08T04:35:50.058Z,96937.72
2023-04-08T04:38:16.595Z,96901.69
2023-04-08T04:40:44.215Z,96937.81
2023-04-08T04:43:10.912Z,96952.84
2023-04-08T04:45:37.368Z,96928.41
2023-04-08T04:48:03.806Z,96958.94
2023-04-08T04:50:30.491Z,96933.03
2023-04-08T04:52:57.050Z,96953.25
2023-04-08T04:55:23.528Z,96908.38
2023-04-08T04:57:49.910Z,96958.34
2023-04-08T05:00:17.053Z,96941.28
2023-04-08T05:02:43.792Z,96968.56
2023-04-08T05:05:10.725Z,96959.91
2023-04-08T05:07:38.476Z,96956.41
2023-04-08T05:10:06.071Z,96970.53
2023-04-08T05:12:32.755Z,96966.16
2023-04-08T05:15:02.292Z,96953.41
2023-04-08T05:17:28.798Z,96962.44
2023-04-08T05:19:55.202Z,96974.16
2023-04-08T05:22:21.943Z,96959.66
2023-04-08T05:24:48.906Z,96936.19
2023-04-08T05:27:15.633Z,96979.53
2023-04-08T05:29:42.440Z,96958.38
2023-04-08T05:32:09.210Z,96978.19
2023-04-08T05:34:35.735Z,96954.28
2023-04-08T05:37:02.137Z,96984.78
2023-04-08T05:39:28.598Z,96966.41
2023-04-08T05:41:55.174Z,96987.44
2023-04-08T05:44:21.748Z,96972.78
2023-04-08T05:46:48.256Z,96976.97
2023-04-08T05:49:15.665Z,96989.84
2023-04-08T05:51:42.197Z,96984.81
2023-04-08T05:54:08.906Z,97001.28
2023-04-08T05:56:35.964Z,97002.84
2023-04-08T05:59:02.485Z,96990.69
2023-04-08T06:01:28.956Z,97009.75
2023-04-08T06:03:58.551Z,96991.66
2023-04-08T06:06:28.035Z,97000.91
2023-04-08T06:08:54.514Z,96981.25
2023-04-08T06:11:21.058Z,97006.72
2023-04-08T06:13:48.103Z,97008.13
2023-04-08T06:16:19.524Z,96997.91
2023-04-08T06:18:47.302Z,96997.31
2023-04-08T06:21:14.032Z,97003.50
2023-04-08T06:23:40.367Z,97008.53
2023-04-08T06:26:07.156Z,97004.31
2023-04-08T06:28:33.707Z,97006.91
2023-04-08T06:31:00.430Z,96989.69
2023-04-08T06:33:26.945Z,96990.28
2023-04-08T06:36:01.823Z,97011.31
2023-04-08T06:38:28.320Z,96985.50
2023-04-08T06:40:54.699Z,97029.78
2023-04-08T06:43:21.142Z,96987.47
2023-04-08T06:45:47.537Z,97028.97
2023-04-08T06:48:14.019Z,97003.47
2023-04-08T06:50:40.406Z,97034.97
2023-04-08T06:53:06.860Z,96999.31
2023-04-08T06:55:33.287Z,97030.38
2023-04-08T06:57:59.775Z,97021.34
2023-04-08T07:00:26.597Z,97042.81
2023-04-08T07:02:53.191Z,97039.59
2023-04-08T07:05:19.705Z,97045.63
2023-04-08T07:07:46.220Z,97049.22
2023-04-08T07:10:13.203Z,96996.09
2023-04-08T07:12:39.626Z,97039.81
2023-04-08T07:15:06.411Z,97055.03
2023-04-08T07:17:32.915Z,97053.84
2023-04-08T07:19:59.419Z,97053.84
2023-04-08T07:22:26.153Z,97041.56
2023-04-08T07:24:52.813Z,97049.44
2023-04-08T07:27:19.281Z,97055.00
2023-04-08T07:29:45.843Z,97079.50
2023-04-08T07:32:12.286Z,97067.66
2023-04-08T07:34:38.649Z,97088.34
2023-04-08T07:37:05.323Z,97087.25
2023-04-08T07:39:31.844Z,97097.44
2023-04-08T07:41:58.340Z,97072.94
2023-04-08T07:44:24.696Z,97095.06
2023-04-08T07:46:51.868Z,97056.94
2023-04-08T07:49:18.468Z,97081.25
2023-04-08T07:51:44.926Z,97098.91
2023-04-08T07:54:12.574Z,97084.00
2023-04-08T07:56:40.399Z,97095.03
2023-04-08T07:59:07.217Z,97081.53
2023-04-08T08:01:34.966Z,97082.72
2023-04-08T08:04:01.996Z,97110.88
2023-04-08T08:06:28.775Z,97082.28
2023-04-08T08:08:55.589Z,97108.88
2023-04-08T08:11:22.633Z,97070.63
2023-04-08T08:13:49.391Z,97104.91
2023-04-08T08:16:16.152Z,97092.25
2023-04-08T08:18:42.679Z,97087.69
2023-04-08T08:21:09.541Z,97122.88
2023-04-08T08:23:37.413Z,97118.97
2023-04-08T08:26:12.093Z,97121.19
2023-04-08T08:28:39.831Z,97095.19
2023-04-08T08:31:06.533Z,97110.66
2023-04-08T08:33:33.766Z,97105.50
2023-04-08T08:36:00.504Z,97128.97
2023-04-08T08:38:27.524Z,97126.44
2023-04-08T08:40:56.270Z,97139.59
2023-04-08T08:43:24.112Z,97125.53
2023-04-08T08:45:51.283Z,97138.47
2023-04-08T08:48:17.848Z,97132.81
2023-04-08T08:50:44.487Z,97130.69
2023-04-08T08:53:11.084Z,97120.78
2023-04-08T08:56:05.739Z,97132.81
2023-04-08T08:58:27.883Z,97126.09
2023-04-08T09:00:54.649Z,97124.94
2023-04-08T09:03:23.932Z,97140.22
2023-04-08T09:05:56.595Z,97150.47
2023-04-08T09:08:43.314Z,97140.31
2023-04-08T09:11:13.977Z,97155.94
2023-04-08T09:13:40.766Z,97138.00
2023-04-08T09:16:10.248Z,97157.63
2023-04-08T09:18:38.096Z,97157.28
2023-04-08T09:21:06.566Z,97154.28
2023-04-08T09:23:52.686Z,97161.88
2023-04-08T09:26:24.634Z,97155.84
2023-04-08T09:29:01.102Z,97166.50
2023-04-08T09:31:38.181Z,97155.63
2023-04-08T09:34:13.168Z,97160.59
2023-04-08T09:36:39.644Z,97167.06
2023-04-08T09:39:06.440Z,97164.22
2023-04-08T09:41:38.748Z,97137.56
2023-04-08T09:44:10.295Z,97167.94
2023-04-08T09:46:41.066Z,97174.41
2023-04-08T09:49:12.350Z,97167.16
2023-04-08T09:51:45.210Z,97149.09
2023-04-08T09:54:18.349Z,97154.66
2023-04-08T09:56:53.612Z,97172.88
2023-04-08T09:59:23.950Z,97171.63
2023-04-08T10:01:53.960Z,97176.75
2023-04-08T10:04:24.168Z,97163.97
2023-04-08T10:06:57.301Z,97181.19
2023-04-08T10:09:24.157Z,97173.44
2023-04-08T10:11:51.308Z,97122.59
2023-04-08T10:14:17.840Z,97171.06
2023-04-08T10:16:44.400Z,97178.13
2023-04-08T10:19:37.392Z,97168.50
2023-04-08T10:22:04.230Z,97139.56
2023-04-08T10:24:31.468Z,97155.25
2023-04-08T10:26:58.115Z,97175.09
2023-04-08T10:29:30.924Z,97180.53
2023-04-08T10:31:57.769Z,97180.09
2023-04-08T10:34:27.358Z,97169.38
2023-04-08T10:36:55.856Z,97182.06
2023-04-08T10:39:22.816Z,97184.72
2023-04-08T10:41:50.594Z,97174.81
2023-04-08T10:44:22.341Z,97179.38
2023-04-08T10:46:51.295Z,97151.66
2023-04-08T10:49:18.612Z,97156.97
2023-04-08T10:51:46.570Z,97168.78
2023-04-08T10:54:16.784Z,97168.69
2023-04-08T10:56:51.164Z,97187.00
2023-04-08T10:59:28.262Z,97180.53
2023-04-08T11:01:55.658Z,97187.34
2023-04-08T11:04:23.628Z,97178.09
2023-04-08T11:06:50.351Z,97190.44
2023-04-08T11:09:17.129Z,97195.13
2023-04-08T11:11:44.881Z,97177.72
2023-04-08T11:14:11.454Z,97182.69
2023-04-08T11:16:39.416Z,97155.25
2023-04-08T11:19:06.879Z,97174.88
2023-04-08T11:21:38.508Z,97190.59
2023-04-08T11:24:14.876Z,97173.09
2023-04-08T11:26:42.105Z,97183.09
2023-04-08T11:29:14.231Z,97157.25
2023-04-08T11:31:42.516Z,97178.25
2023-04-08T11:34:09.395Z,97169.59
2023-04-08T11:36:36.869Z,97175.84
2023-04-08T11:39:10.498Z,97194.19
2023-04-08T11:41:39.448Z,97197.72
2023-04-08T11:44:07.088Z,97197.38
2023-04-08T11:46:35.188Z,97195.41
2023-04-08T11:49:06.454Z,97196.84
2023-04-08T11:51:34.772Z,97170.53
2023-04-08T11:54:30.756Z,97195.66
2023-04-08T11:56:58.288Z,97170.19
2023-04-08T11:59:27.299Z,97164.94
2023-04-08T12:01:55.408Z,97182.97
2023-04-08T12:04:22.192Z,97189.06
2023-04-08T12:06:49.593Z,97181.44
2023-04-08T12:09:16.427Z,97188.06
2023-04-08T12:11:42.874Z,97207.72
2023-04-08T12:14:09.654Z,97187.06
2023-04-08T12:16:36.383Z,97210.13
2023-04-08T12:19:02.969Z,97176.63
2023-04-08T12:21:29.371Z,97202.94
2023-04-08T12:23:55.979Z,97171.22
2023-04-08T12:26:22.651Z,97204.13
2023-04-08T12:28:49.119Z,97157.34
2023-04-08T12:31:15.574Z,97214.16
2023-04-08T12:33:42.124Z,97203.09
2023-04-08T12:36:08.598Z,97214.78
2023-04-08T12:38:35.245Z,97213.16
2023-04-08T12:41:01.642Z,97220.53
2023-04-08T12:43:28.112Z,97195.69
2023-04-08T12:45:54.492Z,97209.53
2023-04-08T12:48:20.961Z,97193.84
2023-04-08T12:50:47.375Z,97212.31
2023-04-08T12:53:13.841Z,97148.31
2023-04-08T12:55:40.348Z,97213.56
2023-04-08T12:58:06.909Z,97197.28
2023-04-08T13:00:33.523Z,97206.47
2023-04-08T13:03:00.352Z,97187.16
2023-04-08T13:05:41.956Z,97186.25
2023-04-08T13:08:09.854Z,97195.25
2023-04-08T13:10:36.414Z,97202.06
2023-04-08T13:13:02.807Z,97209.19
2023-04-08T13:15:29.284Z,97187.56
2023-04-08T13:17:55.980Z,97198.44
2023-04-08T13:20:25.664Z,97188.19
2023-04-08T13:22:55.223Z,97185.19
2023-04-08T13:25:21.718Z,97182.03
2023-04-08T13:27:48.134Z,97202.09
2023-04-08T13:30:14.644Z,97199.53
2023-04-08T13:32:41.238Z,97192.19
2023-04-08T13:35:08.293Z,97199.28
2023-04-08T13:37:34.818Z,97196.03
2023-04-08T13:40:02.337Z,97203.38
2023-04-08T13:42:31.326Z,97189.75
2023-04-08T13:44:57.906Z,97207.91
2023-04-08T13:47:24.370Z,97210.72
2023-04-08T13:49:51.684Z,97152.22
2023-04-08T13:52:18.180Z,97166.09
2023-04-08T13:54:44.539Z,97203.16
2023-04-08T13:57:10.993Z,97205.22
2023-04-08T13:59:37.452Z,97199.56
2023-04-08T14:02:04.238Z,97194.94
2023-04-08T14:04:30.925Z,97199.88
2023-04-08T14:06:58.143Z,97203.06
2023-04-08T14:09:24.668Z,97170.88
2023-04-08T14:11:51.033Z,97195.63
2023-04-08T14:14:17.511Z,97184.38
2023-04-08T14:16:43.948Z,97196.47
2023-04-08T14:19:10.492Z,97190.59
2023-04-08T14:21:38.034Z,97202.03
2023-04-08T14:24:05.552Z,97201.53
2023-04-08T14:26:35.766Z,97202.81
2023-04-08T14:29:06.591Z,97194.75
2023-04-08T14:31:33.734Z,97186.16
2023-04-08T14:34:01.060Z,97204.75
2023-04-08T14:36:31.651Z,97195.53
2023-04-08T14:38:58.265Z,97196.88
2023-04-08T14:41:27.137Z,97203.41
2023-04-08T14:43:53.661Z,97198.03
2023-04-08T14:46:20.968Z,97215.75
2023-04-08T14:48:47.622Z,97183.81
2023-04-08T14:51:13.982Z,97218.94
2023-04-08T14:53:40.577Z,97209.53
2023-04-08T14:56:08.649Z,97213.69
2023-04-08T14:58:35.236Z,97192.91
2023-04-08T15:01:01.644Z,97224.31
2023-04-08T15:03:28.284Z,97200.75
2023-04-08T15:05:58.593Z,97192.91
2023-04-08T15:08:25.115Z,97213.31
2023-04-08T15:10:51.499Z,97217.97
2023-04-08T15:13:17.956Z,97200.50
2023-04-08T15:15:44.478Z,97232.09
2023-04-08T15:18:11.020Z,97234.94
2023-04-08T15:20:37.506Z,97239.63
2023-04-08T15:23:03.965Z,97208.72
2023-04-08T15:25:30.360Z,97243.47
2023-04-08T15:27:57.027Z,97239.81
2023-04-08T15:30:25.041Z,97208.94
2023-04-08T15:32:52.116Z,97219.38
2023-04-08T15:35:18.736Z,97232.44
2023-04-08T15:37:45.316Z,97238.44
2023-04-08T15:40:12.008Z,97242.38
2023-04-08T15:42:38.476Z,97211.69
2023-04-08T15:45:04.929Z,97250.09
2023-04-08T15:47:31.575Z,97237.84
2023-04-08T15:49:58.099Z,97228.38
2023-04-08T15:52:24.720Z,97244.00
2023-04-08T15:54:51.174Z,97229.81
2023-04-08T15:57:17.584Z,97247.84
2023-04-08T15:59:44.149Z,97248.63
2023-04-08T16:02:10.948Z,97249.41
2023-04-08T16:04:37.514Z,97248.19
2023-04-08T16:07:04.199Z,97220.13
2023-04-08T16:09:31.188Z,97239.41
2023-04-08T16:11:57.673Z,97250.66
2023-04-08T16:14:24.086Z,97258.09
2023-04-08T16:16:51.241Z,97255.66
2023-04-08T16:19:18.292Z,97251.22
2023-04-08T16:21:44.811Z,97259.88
2023-04-08T16:24:11.542Z,97266.50
2023-04-08T16:26:38.067Z,97254.91
2023-04-08T16:29:04.581Z,97262.75
2023-04-08T16:33:57.745Z,97278.13
2023-04-08T16:36:24.361Z,97263.28
2023-04-08T16:38:51.207Z,97279.59
2023-04-08T16:41:17.696Z,97286.63
2023-04-08T16:43:44.096Z,97284.22
2023-04-08T16:46:16.768Z,97284.75
2023-04-08T16:48:44.245Z,97265.31
2023-04-08T16:51:11.585Z,97283.03
2023-04-08T16:53:38.262Z,97271.16
2023-04-08T16:56:05.647Z,97281.19
2023-04-08T16:58:32.575Z,97266.75
2023-04-08T17:00:59.082Z,97250.91
2023-04-08T17:03:27.269Z,97284.84
2023-04-08T17:05:53.923Z,97289.81
2023-04-08T17:08:21.252Z,97308.13
2023-04-08T17:10:49.630Z,97290.84
2023-04-08T17:13:16.807Z,97281.19
2023-04-08T17:15:43.389Z,97288.66
2023-04-08T17:18:09.871Z,97290.66
2023-04-08T17:20:37.559Z,97306.75
2023-04-08T17:23:03.949Z,97309.94
2023-04-08T17:25:30.714Z,97309.13
2023-04-08T17:27:57.147Z,97271.78
2023-04-08T17:30:23.707Z,97292.25
2023-04-08T17:32:50.180Z,97314.94
2023-04-08T17:35:17.232Z,97283.41
2023-04-08T17:37:43.687Z,97298.69
2023-04-08T17:40:10.153Z,97318.75
2023-04-08T17:42:36.567Z,97270.47
2023-04-08T17:45:03.088Z,97327.16
2023-04-08T17:47:29.554Z,97327.19
2023-04-08T17:49:56.247Z,97330.19
2023-04-08T17:52:22.773Z,97331.97
2023-04-08T17:54:49.142Z,97326.19
2023-04-08T17:57:15.578Z,97329.19
2023-04-08T17:59:41.968Z,97331.00
2023-04-08T18:02:08.665Z,97325.56
2023-04-08T18:04:35.205Z,97333.78
2023-04-08T18:07:03.912Z,97336.78
2023-04-08T18:09:30.740Z,97317.25
2023-04-08T18:11:57.231Z,97346.22
2023-04-08T18:14:23.642Z,97344.41
2023-04-08T18:16:50.176Z,97305.97
2023-04-08T18:19:16.600Z,97357.66
2023-04-08T18:21:43.511Z,97363.16
2023-04-08T18:24:09.933Z,97303.94
2023-04-08T18:26:36.974Z,97351.03
2023-04-08T18:29:03.498Z,97362.88
2023-04-08T18:31:29.880Z,97377.13
2023-04-08T18:33:56.769Z,97313.34
2023-04-08T18:36:23.373Z,97356.94
2023-04-08T18:38:49.775Z,97391.56
2023-04-08T18:41:17.930Z,97364.97
2023-04-08T18:43:44.358Z,97390.09
2023-04-08T18:46:10.815Z,97398.50
2023-04-08T18:48:37.342Z,97386.44
2023-04-08T18:51:03.857Z,97396.56
2023-04-08T18:53:30.633Z,97382.03
2023-04-08T18:55:57.133Z,97407.38
2023-04-08T18:58:23.665Z,97357.03
2023-04-08T19:00:50.142Z,97382.19
2023-04-08T19:03:17.030Z,97386.06
2023-04-08T19:05:43.594Z,97399.25
2023-04-08T19:08:09.968Z,97407.31
2023-04-08T19:10:36.456Z,97394.22
2023-04-08T19:13:03.029Z,97411.66
2023-04-08T19:15:30.156Z,97390.63
2023-04-08T19:17:56.772Z,97415.34
2023-04-08T19:20:23.632Z,97416.88
2023-04-08T19:22:51.123Z,97400.59
2023-04-08T19:25:17.806Z,97400.41
2023-04-08T19:27:45.950Z,97421.28
2023-04-08T19:30:13.469Z,97420.50
2023-04-08T19:32:40.540Z,97400.38
2023-04-08T19:35:07.626Z,97364.31
2023-04-08T19:37:34.633Z,97424.69
2023-04-08T19:40:01.190Z,97424.16
2023-04-08T19:42:27.686Z,97385.53
2023-04-08T19:44:55.086Z,97427.72
2023-04-08T19:47:22.157Z,97423.31
2023-04-08T19:49:48.711Z,97427.25
2023-04-08T19:52:15.370Z,97437.91
2023-04-08T19:54:43.302Z,97418.03
2023-04-08T19:57:11.002Z,97425.25
2023-04-08T19:59:38.110Z,97431.16
2023-04-08T20:02:04.816Z,97400.28
2023-04-08T20:04:31.997Z,97434.06
2023-04-08T20:07:01.772Z,97419.97
2023-04-08T20:09:28.468Z,97434.22
2023-04-08T20:11:54.975Z,97438.44
2023-04-08T20:14:21.333Z,97435.41
2023-04-08T20:16:48.530Z,97395.59
2023-04-08T20:19:15.024Z,97410.09
2023-04-08T20:21:41.790Z,97438.25
2023-04-08T20:24:08.244Z,97430.41
2023-04-08T20:26:34.644Z,97443.06
2023-04-08T20:29:01.622Z,97418.66
2023-04-08T20:31:28.266Z,97420.88
2023-04-08T20:33:55.461Z,97443.22
2023-04-08T20:36:22.817Z,97432.53
2023-04-08T20:38:49.440Z,97422.22
2023-04-08T20:41:20.172Z,97448.97
2023-04-08T20:43:46.819Z,97443.97
2023-04-08T20:46:13.272Z,97395.28
2023-04-08T20:48:39.669Z,97450.91
2023-04-08T20:51:06.537Z,97425.59
2023-04-08T20:53:34.447Z,97440.84
2023-04-08T20:56:02.964Z,97433.72
2023-04-08T20:58:30.725Z,97441.22
2023-04-08T21:00:58.666Z,97434.91
2023-04-08T21:03:26.795Z,97434.47
2023-04-08T21:05:55.233Z,97444.50
2023-04-08T21:08:22.035Z,97436.22
2023-04-08T21:10:48.507Z,97429.75
2023-04-08T21:13:14.913Z,97452.47
2023-04-08T21:15:41.367Z,97397.13
2023-04-08T21:18:09.771Z,97449.88
2023-04-08T21:20:36.260Z,97451.66
2023-04-08T21:23:02.653Z,97444.78
2023-04-08T21:25:31.300Z,97439.16
2023-04-08T21:27:57.745Z,97434.25
2023-04-08T21:30:24.116Z,97455.44
2023-04-08T21:32:50.665Z,97440.69
2023-04-08T21:35:17.469Z,97431.34
2023-04-08T21:37:43.933Z,97447.47
2023-04-08T21:40:10.442Z,97460.31
2023-04-08T21:42:36.889Z,97463.84
2023-04-08T21:45:03.399Z,97457.94
2023-04-08T21:47:29.924Z,97437.66
2023-04-08T21:49:56.477Z,97458.19
2023-04-08T21:52:23.199Z,97450.03
2023-04-08T21:54:53.227Z,97464.91
2023-04-08T21:57:19.818Z,97459.69
2023-04-08T21:59:46.321Z,97463.72
2023-04-08T22:18:11.834Z,97481.28
2023-04-08T22:20:38.580Z,97469.59
2023-04-08T22:23:05.333Z,97474.31
2023-04-08T22:25:31.797Z,97471.94
2023-04-08T22:27:58.213Z,97471.75
2023-04-08T22:30:24.759Z,97457.19
2023-04-08T22:32:51.422Z,97468.53
2023-04-08T22:35:18.070Z,97473.38
2023-04-08T22:37:44.618Z,97466.97
2023-04-08T22:40:11.336Z,97461.41
2023-04-08T22:42:37.915Z,97464.00
2023-04-08T22:45:05.820Z,97450.38
2023-04-08T22:47:32.546Z,97460.06
2023-04-08T22:49:59.127Z,97457.25
2023-04-08T22:52:25.518Z,97464.63
2023-04-08T22:54:52.000Z,97461.84
2023-04-08T22:57:18.464Z,97464.25
2023-04-08T22:59:44.917Z,97461.78
2023-04-08T23:02:11.429Z,97464.00
2023-04-08T23:04:38.032Z,97466.81
2023-04-08T23:07:04.487Z,97459.41
2023-04-08T23:09:31.202Z,97468.84
2023-04-08T23:11:58.249Z,97466.81
2023-04-08T23:14:24.931Z,97450.38
2023-04-08T23:16:51.434Z,97466.88
2023-04-08T23:19:17.846Z,97459.41
2023-04-08T23:21:44.416Z,97462.66
2023-04-08T23:24:11.439Z,97463.16
2023-04-08T23:26:38.016Z,97445.22
2023-04-08T23:29:04.511Z,97458.13
2023-04-08T23:31:31.222Z,97462.47
2023-04-08T23:33:57.775Z,97461.66
2023-04-08T23:36:24.206Z,97457.06
2023-04-08T23:38:51.219Z,97460.03
2023-04-08T23:41:17.959Z,97437.66
2023-04-08T23:43:45.580Z,97464.44
2023-04-08T23:46:12.106Z,97457.75
2023-04-08T23:48:38.707Z,97449.41
2023-04-08T23:51:05.631Z,97457.09
2023-04-08T23:53:32.311Z,97449.50
2023-04-08T23:56:06.567Z,97458.53
2023-04-08T23:58:33.320Z,97459.34
